sensor_id;sensor_type;location;lat;lon;timestamp;temperature;humidity
67586;SHT31;55785;47.946;20.540;2022-11-20T00:00:52;1.17;84.17
67586;SHT31;55785;47.946;20.540;2022-11-20T00:03:17;1.27;84.38
67586;SHT31;55785;47.946;20.540;2022-11-20T00:05:43;1.20;84.59
67586;SHT31;55785;47.946;20.540;2022-11-20T00:08:08;1.26;84.49
67586;SHT31;55785;47.946;20.540;2022-11-20T00:10:36;1.34;84.36
67586;SHT31;55785;47.946;20.540;2022-11-20T00:13:01;1.36;84.23
67586;SHT31;55785;47.946;20.540;2022-11-20T00:15:27;1.43;84.23
67586;SHT31;55785;47.946;20.540;2022-11-20T00:17:52;1.47;84.33
67586;SHT31;55785;47.946;20.540;2022-11-20T00:20:17;1.50;84.27
67586;SHT31;55785;47.946;20.540;2022-11-20T00:22:43;1.50;84.37
67586;SHT31;55785;47.946;20.540;2022-11-20T00:25:08;1.29;84.94
67586;SHT31;55785;47.946;20.540;2022-11-20T00:27:33;1.29;84.96
67586;SHT31;55785;47.946;20.540;2022-11-20T00:29:59;1.37;84.94
67586;SHT31;55785;47.946;20.540;2022-11-20T00:32:24;1.32;85.05
67586;SHT31;55785;47.946;20.540;2022-11-20T00:34:49;1.34;85.01
67586;SHT31;55785;47.946;20.540;2022-11-20T00:37:15;1.30;84.97
67586;SHT31;55785;47.946;20.540;2022-11-20T00:39:40;1.40;84.91
67586;SHT31;55785;47.946;20.540;2022-11-20T00:42:05;1.37;84.75
67586;SHT31;55785;47.946;20.540;2022-11-20T00:44:31;1.46;84.74
67586;SHT31;55785;47.946;20.540;2022-11-20T00:46:56;1.51;84.89
67586;SHT31;55785;47.946;20.540;2022-11-20T00:49:21;1.42;85.08
67586;SHT31;55785;47.946;20.540;2022-11-20T00:51:47;1.37;85.08
67586;SHT31;55785;47.946;20.540;2022-11-20T00:54:12;1.30;85.32
67586;SHT31;55785;47.946;20.540;2022-11-20T00:56:37;1.22;85.01
67586;SHT31;55785;47.946;20.540;2022-11-20T00:59:03;1.32;84.37
67586;SHT31;55785;47.946;20.540;2022-11-20T01:01:28;1.27;84.45
67586;SHT31;55785;47.946;20.540;2022-11-20T01:03:56;1.26;84.30
67586;SHT31;55785;47.946;20.540;2022-11-20T01:06:36;1.36;84.22
67586;SHT31;55785;47.946;20.540;2022-11-20T01:09:06;1.47;84.40
67586;SHT31;55785;47.946;20.540;2022-11-20T01:11:35;1.48;84.63
67586;SHT31;55785;47.946;20.540;2022-11-20T01:14:02;1.42;85.35
67586;SHT31;55785;47.946;20.540;2022-11-20T01:16:33;1.44;85.07
67586;SHT31;55785;47.946;20.540;2022-11-20T01:19:01;1.51;84.96
67586;SHT31;55785;47.946;20.540;2022-11-20T01:21:29;1.48;84.97
67586;SHT31;55785;47.946;20.540;2022-11-20T01:23:55;1.50;84.97
67586;SHT31;55785;47.946;20.540;2022-11-20T01:26:23;1.47;85.04
67586;SHT31;55785;47.946;20.540;2022-11-20T01:28:49;1.43;85.10
67586;SHT31;55785;47.946;20.540;2022-11-20T01:31:20;1.48;85.07
67586;SHT31;55785;47.946;20.540;2022-11-20T01:33:48;1.48;85.13
67586;SHT31;55785;47.946;20.540;2022-11-20T01:36:15;1.42;85.14
67586;SHT31;55785;47.946;20.540;2022-11-20T01:38:41;1.36;85.24
67586;SHT31;55785;47.946;20.540;2022-11-20T01:41:07;1.44;85.21
67586;SHT31;55785;47.946;20.540;2022-11-20T01:43:33;1.50;85.24
67586;SHT31;55785;47.946;20.540;2022-11-20T01:46:18;1.54;84.91
67586;SHT31;55785;47.946;20.540;2022-11-20T01:48:52;1.58;84.98
67586;SHT31;55785;47.946;20.540;2022-11-20T01:54:09;1.53;84.80
67586;SHT31;55785;47.946;20.540;2022-11-20T01:56:39;1.57;84.65
67586;SHT31;55785;47.946;20.540;2022-11-20T01:59:07;1.53;84.90
67586;SHT31;55785;47.946;20.540;2022-11-20T02:01:33;1.58;84.72
67586;SHT31;55785;47.946;20.540;2022-11-20T02:04:00;1.51;84.77
67586;SHT31;55785;47.946;20.540;2022-11-20T02:06:29;1.40;85.23
67586;SHT31;55785;47.946;20.540;2022-11-20T02:08:55;1.44;85.50
67586;SHT31;55785;47.946;20.540;2022-11-20T02:11:21;1.46;84.40
67586;SHT31;55785;47.946;20.540;2022-11-20T02:13:47;1.51;84.21
67586;SHT31;55785;47.946;20.540;2022-11-20T02:16:31;1.53;83.53
67586;SHT31;55785;47.946;20.540;2022-11-20T02:19:00;1.60;83.23
67586;SHT31;55785;47.946;20.540;2022-11-20T02:21:37;1.64;83.72
67586;SHT31;55785;47.946;20.540;2022-11-20T02:24:11;1.61;83.72
67586;SHT31;55785;47.946;20.540;2022-11-20T02:29:09;1.72;83.48
67586;SHT31;55785;47.946;20.540;2022-11-20T02:31:36;1.74;83.56
67586;SHT31;55785;47.946;20.540;2022-11-20T02:34:02;1.78;83.73
67586;SHT31;55785;47.946;20.540;2022-11-20T02:36:28;1.78;84.28
67586;SHT31;55785;47.946;20.540;2022-11-20T02:38:55;1.78;84.13
67586;SHT31;55785;47.946;20.540;2022-11-20T02:41:21;1.67;84.62
67586;SHT31;55785;47.946;20.540;2022-11-20T02:43:46;1.64;84.30
67586;SHT31;55785;47.946;20.540;2022-11-20T02:46:11;1.54;84.57
67586;SHT31;55785;47.946;20.540;2022-11-20T02:48:37;1.46;84.55
67586;SHT31;55785;47.946;20.540;2022-11-20T02:51:02;1.44;84.84
67586;SHT31;55785;47.946;20.540;2022-11-20T02:53:27;1.48;84.58
67586;SHT31;55785;47.946;20.540;2022-11-20T02:55:53;1.39;84.85
67586;SHT31;55785;47.946;20.540;2022-11-20T02:58:18;1.46;84.75
67586;SHT31;55785;47.946;20.540;2022-11-20T03:00:43;1.39;84.90
67586;SHT31;55785;47.946;20.540;2022-11-20T03:03:09;1.36;84.80
67586;SHT31;55785;47.946;20.540;2022-11-20T03:05:34;1.27;84.73
67586;SHT31;55785;47.946;20.540;2022-11-20T03:07:59;1.33;84.96
67586;SHT31;55785;47.946;20.540;2022-11-20T03:10:25;1.33;85.01
67586;SHT31;55785;47.946;20.540;2022-11-20T03:12:54;1.34;84.63
67586;SHT31;55785;47.946;20.540;2022-11-20T03:15:19;1.32;84.59
67586;SHT31;55785;47.946;20.540;2022-11-20T03:17:44;1.26;84.63
67586;SHT31;55785;47.946;20.540;2022-11-20T03:20:10;1.37;84.55
67586;SHT31;55785;47.946;20.540;2022-11-20T03:22:36;1.39;84.52
67586;SHT31;55785;47.946;20.540;2022-11-20T03:25:01;1.33;84.24
67586;SHT31;55785;47.946;20.540;2022-11-20T03:27:26;1.43;84.21
67586;SHT31;55785;47.946;20.540;2022-11-20T03:29:51;1.50;83.70
67586;SHT31;55785;47.946;20.540;2022-11-20T03:32:17;1.50;83.10
67586;SHT31;55785;47.946;20.540;2022-11-20T03:34:42;1.54;83.52
67586;SHT31;55785;47.946;20.540;2022-11-20T03:37:07;1.54;83.70
67586;SHT31;55785;47.946;20.540;2022-11-20T03:39:33;1.60;83.33
67586;SHT31;55785;47.946;20.540;2022-11-20T03:41:58;1.64;83.54
67586;SHT31;55785;47.946;20.540;2022-11-20T03:44:23;1.58;83.14
67586;SHT31;55785;47.946;20.540;2022-11-20T03:46:49;1.63;83.20
67586;SHT31;55785;47.946;20.540;2022-11-20T03:49:14;1.67;82.85
67586;SHT31;55785;47.946;20.540;2022-11-20T03:51:39;1.77;82.99
67586;SHT31;55785;47.946;20.540;2022-11-20T03:54:07;1.81;83.23
67586;SHT31;55785;47.946;20.540;2022-11-20T03:56:35;1.75;83.14
67586;SHT31;55785;47.946;20.540;2022-11-20T03:59:01;1.74;83.09
67586;SHT31;55785;47.946;20.540;2022-11-20T04:01:30;1.74;83.64
67586;SHT31;55785;47.946;20.540;2022-11-20T04:03:56;1.78;82.86
67586;SHT31;55785;47.946;20.540;2022-11-20T04:06:34;1.86;82.95
67586;SHT31;55785;47.946;20.540;2022-11-20T04:08:59;1.99;83.02
67586;SHT31;55785;47.946;20.540;2022-11-20T04:11:29;1.94;83.00
67586;SHT31;55785;47.946;20.540;2022-11-20T04:14:00;1.95;82.75
67586;SHT31;55785;47.946;20.540;2022-11-20T04:16:28;2.05;82.72
67586;SHT31;55785;47.946;20.540;2022-11-20T04:18:55;1.95;82.89
67586;SHT31;55785;47.946;20.540;2022-11-20T04:21:21;1.98;82.87
67586;SHT31;55785;47.946;20.540;2022-11-20T04:23:47;1.86;83.23
67586;SHT31;55785;47.946;20.540;2022-11-20T04:26:13;1.89;83.40
67586;SHT31;55785;47.946;20.540;2022-11-20T04:28:38;1.86;83.46
67586;SHT31;55785;47.946;20.540;2022-11-20T04:31:09;1.89;83.44
67586;SHT31;55785;47.946;20.540;2022-11-20T04:33:36;1.92;83.63
67586;SHT31;55785;47.946;20.540;2022-11-20T04:36:07;1.89;82.93
67586;SHT31;55785;47.946;20.540;2022-11-20T04:38:35;1.95;82.22
67586;SHT31;55785;47.946;20.540;2022-11-20T04:41:02;1.99;82.38
67586;SHT31;55785;47.946;20.540;2022-11-20T04:43:27;1.94;82.46
67586;SHT31;55785;47.946;20.540;2022-11-20T04:45:54;2.02;82.37
67586;SHT31;55785;47.946;20.540;2022-11-20T04:48:19;2.02;82.64
67586;SHT31;55785;47.946;20.540;2022-11-20T04:50:44;2.03;83.31
67586;SHT31;55785;47.946;20.540;2022-11-20T04:53:10;2.05;83.22
67586;SHT31;55785;47.946;20.540;2022-11-20T04:55:35;2.06;83.29
67586;SHT31;55785;47.946;20.540;2022-11-20T04:58:00;1.98;83.57
67586;SHT31;55785;47.946;20.540;2022-11-20T05:00:26;1.94;83.99
67586;SHT31;55785;47.946;20.540;2022-11-20T05:02:51;1.97;84.08
67586;SHT31;55785;47.946;20.540;2022-11-20T05:05:16;1.99;83.85
67586;SHT31;55785;47.946;20.540;2022-11-20T05:07:41;2.05;83.99
67586;SHT31;55785;47.946;20.540;2022-11-20T05:10:07;1.88;84.21
67586;SHT31;55785;47.946;20.540;2022-11-20T05:12:33;2.05;83.68
67586;SHT31;55785;47.946;20.540;2022-11-20T05:14:58;1.98;83.32
67586;SHT31;55785;47.946;20.540;2022-11-20T05:17:23;2.03;83.77
67586;SHT31;55785;47.946;20.540;2022-11-20T05:19:48;1.94;83.95
67586;SHT31;55785;47.946;20.540;2022-11-20T05:22:14;1.97;84.05
67586;SHT31;55785;47.946;20.540;2022-11-20T05:24:39;1.94;84.24
67586;SHT31;55785;47.946;20.540;2022-11-20T05:27:04;1.95;84.18
67586;SHT31;55785;47.946;20.540;2022-11-20T05:29:30;1.99;84.12
67586;SHT31;55785;47.946;20.540;2022-11-20T05:31:55;2.06;83.95
67586;SHT31;55785;47.946;20.540;2022-11-20T05:34:20;2.08;83.98
67586;SHT31;55785;47.946;20.540;2022-11-20T05:36:46;2.09;84.17
67586;SHT31;55785;47.946;20.540;2022-11-20T05:39:11;2.20;84.03
67586;SHT31;55785;47.946;20.540;2022-11-20T05:41:36;2.19;83.87
67586;SHT31;55785;47.946;20.540;2022-11-20T05:44:02;2.23;84.06
67586;SHT31;55785;47.946;20.540;2022-11-20T05:46:27;2.26;83.97
67586;SHT31;55785;47.946;20.540;2022-11-20T05:48:52;2.26;83.89
67586;SHT31;55785;47.946;20.540;2022-11-20T05:51:18;2.25;83.95
67586;SHT31;55785;47.946;20.540;2022-11-20T05:53:44;2.33;83.98
67586;SHT31;55785;47.946;20.540;2022-11-20T05:56:13;2.37;83.94
67586;SHT31;55785;47.946;20.540;2022-11-20T05:58:39;2.39;84.01
67586;SHT31;55785;47.946;20.540;2022-11-20T06:01:07;2.30;84.10
67586;SHT31;55785;47.946;20.540;2022-11-20T06:03:32;2.39;84.15
67586;SHT31;55785;47.946;20.540;2022-11-20T06:06:01;2.37;84.26
67586;SHT31;55785;47.946;20.540;2022-11-20T06:08:27;2.46;83.94
67586;SHT31;55785;47.946;20.540;2022-11-20T06:10:53;2.54;83.74
67586;SHT31;55785;47.946;20.540;2022-11-20T06:13:18;2.60;84.01
67586;SHT31;55785;47.946;20.540;2022-11-20T06:15:53;2.53;84.10
67586;SHT31;55785;47.946;20.540;2022-11-20T06:18:19;2.50;84.21
67586;SHT31;55785;47.946;20.540;2022-11-20T06:20:45;2.39;84.24
67586;SHT31;55785;47.946;20.540;2022-11-20T06:23:11;2.39;84.24
67586;SHT31;55785;47.946;20.540;2022-11-20T06:25:38;2.39;83.69
67586;SHT31;55785;47.946;20.540;2022-11-20T06:28:03;2.37;84.03
67586;SHT31;55785;47.946;20.540;2022-11-20T06:30:29;2.41;84.34
67586;SHT31;55785;47.946;20.540;2022-11-20T06:32:54;2.44;84.30
67586;SHT31;55785;47.946;20.540;2022-11-20T06:35:19;2.46;84.21
67586;SHT31;55785;47.946;20.540;2022-11-20T06:37:45;2.44;84.22
67586;SHT31;55785;47.946;20.540;2022-11-20T06:40:10;2.43;84.25
67586;SHT31;55785;47.946;20.540;2022-11-20T06:42:36;2.46;83.83
67586;SHT31;55785;47.946;20.540;2022-11-20T06:45:01;2.39;83.97
67586;SHT31;55785;47.946;20.540;2022-11-20T06:47:26;2.47;83.93
67586;SHT31;55785;47.946;20.540;2022-11-20T06:49:52;2.51;84.03
67586;SHT31;55785;47.946;20.540;2022-11-20T06:52:17;2.46;84.06
67586;SHT31;55785;47.946;20.540;2022-11-20T06:54:42;2.50;84.20
67586;SHT31;55785;47.946;20.540;2022-11-20T06:57:08;2.61;84.30
67586;SHT31;55785;47.946;20.540;2022-11-20T06:59:33;2.56;84.24
67586;SHT31;55785;47.946;20.540;2022-11-20T07:01:58;2.49;84.51
67586;SHT31;55785;47.946;20.540;2022-11-20T07:04:24;2.61;84.73
67586;SHT31;55785;47.946;20.540;2022-11-20T07:06:49;2.67;85.05
67586;SHT31;55785;47.946;20.540;2022-11-20T07:09:14;2.76;84.64
67586;SHT31;55785;47.946;20.540;2022-11-20T07:11:40;2.74;84.49
67586;SHT31;55785;47.946;20.540;2022-11-20T07:14:05;2.67;84.56
67586;SHT31;55785;47.946;20.540;2022-11-20T07:16:30;2.64;84.48
67586;SHT31;55785;47.946;20.540;2022-11-20T07:18:56;2.70;84.31
67586;SHT31;55785;47.946;20.540;2022-11-20T07:21:21;2.64;84.84
67586;SHT31;55785;47.946;20.540;2022-11-20T07:23:46;2.78;84.24
67586;SHT31;55785;47.946;20.540;2022-11-20T07:26:12;2.83;84.27
67586;SHT31;55785;47.946;20.540;2022-11-20T07:28:37;2.73;84.74
67586;SHT31;55785;47.946;20.540;2022-11-20T07:31:03;2.84;84.24
67586;SHT31;55785;47.946;20.540;2022-11-20T07:33:29;2.94;84.01
67586;SHT31;55785;47.946;20.540;2022-11-20T07:35:54;3.02;84.14
67586;SHT31;55785;47.946;20.540;2022-11-20T07:38:19;3.02;83.59
67586;SHT31;55785;47.946;20.540;2022-11-20T07:40:45;3.07;83.68
67586;SHT31;55785;47.946;20.540;2022-11-20T07:43:10;3.11;83.23
67586;SHT31;55785;47.946;20.540;2022-11-20T07:45:35;3.19;83.26
67586;SHT31;55785;47.946;20.540;2022-11-20T07:48:01;3.29;83.19
67586;SHT31;55785;47.946;20.540;2022-11-20T07:50:26;3.39;83.29
67586;SHT31;55785;47.946;20.540;2022-11-20T07:52:51;3.30;83.65
67586;SHT31;55785;47.946;20.540;2022-11-20T07:55:17;3.22;83.97
67586;SHT31;55785;47.946;20.540;2022-11-20T07:57:42;3.12;84.17
67586;SHT31;55785;47.946;20.540;2022-11-20T08:00:09;2.99;84.54
67586;SHT31;55785;47.946;20.540;2022-11-20T08:02:37;3.05;84.90
67586;SHT31;55785;47.946;20.540;2022-11-20T08:05:02;3.07;84.65
67586;SHT31;55785;47.946;20.540;2022-11-20T08:07:28;3.22;84.43
67586;SHT31;55785;47.946;20.540;2022-11-20T08:09:53;3.32;84.23
67586;SHT31;55785;47.946;20.540;2022-11-20T08:12:20;3.40;84.27
67586;SHT31;55785;47.946;20.540;2022-11-20T08:14:45;3.43;84.18
67586;SHT31;55785;47.946;20.540;2022-11-20T08:17:11;3.60;83.94
67586;SHT31;55785;47.946;20.540;2022-11-20T08:19:36;3.60;83.78
67586;SHT31;55785;47.946;20.540;2022-11-20T08:22:01;3.62;83.84
67586;SHT31;55785;47.946;20.540;2022-11-20T08:24:27;3.62;83.83
67586;SHT31;55785;47.946;20.540;2022-11-20T08:26:52;3.80;83.76
67586;SHT31;55785;47.946;20.540;2022-11-20T08:29:18;3.86;83.43
67586;SHT31;55785;47.946;20.540;2022-11-20T08:31:43;3.95;83.62
67586;SHT31;55785;47.946;20.540;2022-11-20T08:34:08;4.05;83.12
67586;SHT31;55785;47.946;20.540;2022-11-20T08:36:34;4.09;83.08
67586;SHT31;55785;47.946;20.540;2022-11-20T08:39:00;4.24;83.15
67586;SHT31;55785;47.946;20.540;2022-11-20T08:41:25;4.18;82.80
67586;SHT31;55785;47.946;20.540;2022-11-20T08:43:53;4.17;84.32
67586;SHT31;55785;47.946;20.540;2022-11-20T08:46:19;4.12;83.78
67586;SHT31;55785;47.946;20.540;2022-11-20T08:48:44;4.24;83.81
67586;SHT31;55785;47.946;20.540;2022-11-20T08:51:11;4.38;83.50
67586;SHT31;55785;47.946;20.540;2022-11-20T08:53:37;4.49;83.39
67586;SHT31;55785;47.946;20.540;2022-11-20T08:56:02;4.57;83.45
67586;SHT31;55785;47.946;20.540;2022-11-20T08:58:28;4.67;83.18
67586;SHT31;55785;47.946;20.540;2022-11-20T09:00:53;4.86;82.80
67586;SHT31;55785;47.946;20.540;2022-11-20T09:03:19;4.84;83.00
67586;SHT31;55785;47.946;20.540;2022-11-20T09:05:44;4.76;81.80
67586;SHT31;55785;47.946;20.540;2022-11-20T09:08:09;4.95;81.87
67586;SHT31;55785;47.946;20.540;2022-11-20T09:10:35;4.97;82.04
67586;SHT31;55785;47.946;20.540;2022-11-20T09:13:00;5.03;81.69
67586;SHT31;55785;47.946;20.540;2022-11-20T09:15:25;5.10;81.39
67586;SHT31;55785;47.946;20.540;2022-11-20T09:20:17;4.94;82.79
67586;SHT31;55785;47.946;20.540;2022-11-20T09:22:42;4.93;83.48
67586;SHT31;55785;47.946;20.540;2022-11-20T09:25:08;4.83;83.12
67586;SHT31;55785;47.946;20.540;2022-11-20T09:27:33;4.88;82.71
67586;SHT31;55785;47.946;20.540;2022-11-20T09:29:58;5.01;83.21
67586;SHT31;55785;47.946;20.540;2022-11-20T09:32:24;4.93;82.24
67586;SHT31;55785;47.946;20.540;2022-11-20T09:34:49;4.97;83.02
67586;SHT31;55785;47.946;20.540;2022-11-20T09:37:14;4.95;83.09
67586;SHT31;55785;47.946;20.540;2022-11-20T09:39:40;4.87;83.29
67586;SHT31;55785;47.946;20.540;2022-11-20T09:42:40;4.93;83.69
67586;SHT31;55785;47.946;20.540;2022-11-20T09:53:59;4.95;84.02
67586;SHT31;55785;47.946;20.540;2022-11-20T09:56:25;4.97;82.80
67586;SHT31;55785;47.946;20.540;2022-11-20T09:58:54;5.07;84.32
67586;SHT31;55785;47.946;20.540;2022-11-20T10:01:23;5.03;84.25
67586;SHT31;55785;47.946;20.540;2022-11-20T10:06:24;5.08;83.06
67586;SHT31;55785;47.946;20.540;2022-11-20T10:09:04;5.15;83.67
67586;SHT31;55785;47.946;20.540;2022-11-20T10:26:28;5.13;83.44
67586;SHT31;55785;47.946;20.540;2022-11-20T10:31:39;4.90;83.50
67586;SHT31;55785;47.946;20.540;2022-11-20T10:34:11;4.84;83.54
67586;SHT31;55785;47.946;20.540;2022-11-20T10:36:44;4.94;83.58
67586;SHT31;55785;47.946;20.540;2022-11-20T10:39:28;4.98;83.42
67586;SHT31;55785;47.946;20.540;2022-11-20T10:41:54;4.93;83.72
67586;SHT31;55785;47.946;20.540;2022-11-20T10:44:27;4.77;83.52
67586;SHT31;55785;47.946;20.540;2022-11-20T10:46:53;4.87;84.29
67586;SHT31;55785;47.946;20.540;2022-11-20T10:49:19;4.88;83.42
67586;SHT31;55785;47.946;20.540;2022-11-20T10:55:17;5.25;83.98
67586;SHT31;55785;47.946;20.540;2022-11-20T10:57:22;5.28;82.90
67586;SHT31;55785;47.946;20.540;2022-11-20T11:00:00;5.49;82.69
67586;SHT31;55785;47.946;20.540;2022-11-20T11:02:53;5.51;84.22
67586;SHT31;55785;47.946;20.540;2022-11-20T11:07:55;5.52;83.27
67586;SHT31;55785;47.946;20.540;2022-11-20T11:13:39;5.51;82.63
67586;SHT31;55785;47.946;20.540;2022-11-20T11:16:04;5.42;83.63
67586;SHT31;55785;47.946;20.540;2022-11-20T11:18:32;5.32;84.32
67586;SHT31;55785;47.946;20.540;2022-11-20T11:21:01;5.30;83.49
67586;SHT31;55785;47.946;20.540;2022-11-20T11:23:38;5.36;83.75
67586;SHT31;55785;47.946;20.540;2022-11-20T11:26:06;5.44;83.80
67586;SHT31;55785;47.946;20.540;2022-11-20T11:28:33;5.51;83.13
67586;SHT31;55785;47.946;20.540;2022-11-20T11:30:58;5.51;83.15
67586;SHT31;55785;47.946;20.540;2022-11-20T11:33:26;5.67;83.14
67586;SHT31;55785;47.946;20.540;2022-11-20T11:36:14;5.56;82.88
67586;SHT31;55785;47.946;20.540;2022-11-20T11:38:41;5.53;84.02
67586;SHT31;55785;47.946;20.540;2022-11-20T11:41:16;5.39;83.61
67586;SHT31;55785;47.946;20.540;2022-11-20T11:43:52;5.41;83.90
67586;SHT31;55785;47.946;20.540;2022-11-20T11:49:18;5.60;81.88
67586;SHT31;55785;47.946;20.540;2022-11-20T12:00:01;5.72;82.82
67586;SHT31;55785;47.946;20.540;2022-11-20T12:02:48;5.83;81.33
67586;SHT31;55785;47.946;20.540;2022-11-20T12:07:54;5.85;83.71
67586;SHT31;55785;47.946;20.540;2022-11-20T12:13:01;5.55;81.89
67586;SHT31;55785;47.946;20.540;2022-11-20T12:15:32;5.48;82.78
67586;SHT31;55785;47.946;20.540;2022-11-20T12:17:58;5.66;83.46
67586;SHT31;55785;47.946;20.540;2022-11-20T12:20:29;5.67;83.18
67586;SHT31;55785;47.946;20.540;2022-11-20T12:23:07;5.72;82.17
67586;SHT31;55785;47.946;20.540;2022-11-20T12:25:36;5.77;81.88
67586;SHT31;55785;47.946;20.540;2022-11-20T12:28:28;5.73;82.29
67586;SHT31;55785;47.946;20.540;2022-11-20T12:31:05;5.77;82.95
67586;SHT31;55785;47.946;20.540;2022-11-20T12:33:44;5.86;81.88
67586;SHT31;55785;47.946;20.540;2022-11-20T12:42:00;6.03;81.47
67586;SHT31;55785;47.946;20.540;2022-11-20T12:55:30;6.49;82.35
67586;SHT31;55785;47.946;20.540;2022-11-20T13:00:38;6.13;81.43
67586;SHT31;55785;47.946;20.540;2022-11-20T13:03:32;5.96;81.44
67586;SHT31;55785;47.946;20.540;2022-11-20T13:06:15;5.97;82.09
67586;SHT31;55785;47.946;20.540;2022-11-20T13:08:43;6.00;81.77
67586;SHT31;55785;47.946;20.540;2022-11-20T13:11:37;5.90;82.06
67586;SHT31;55785;47.946;20.540;2022-11-20T13:19:21;6.28;81.23
67586;SHT31;55785;47.946;20.540;2022-11-20T13:21:48;6.28;81.38
67586;SHT31;55785;47.946;20.540;2022-11-20T13:24:23;6.40;80.33
67586;SHT31;55785;47.946;20.540;2022-11-20T13:29:42;6.34;80.09
67586;SHT31;55785;47.946;20.540;2022-11-20T13:32:17;6.40;80.37
67586;SHT31;55785;47.946;20.540;2022-11-20T13:34:59;6.35;80.63
67586;SHT31;55785;47.946;20.540;2022-11-20T13:37:32;6.37;80.85
67586;SHT31;55785;47.946;20.540;2022-11-20T13:42:37;5.94;82.07
67586;SHT31;55785;47.946;20.540;2022-11-20T13:45:09;5.83;82.53
67586;SHT31;55785;47.946;20.540;2022-11-20T13:47:35;5.82;82.68
67586;SHT31;55785;47.946;20.540;2022-11-20T13:50:03;5.96;82.66
67586;SHT31;55785;47.946;20.540;2022-11-20T13:55:26;6.07;82.53
67586;SHT31;55785;47.946;20.540;2022-11-20T14:01:30;6.20;81.72
67586;SHT31;55785;47.946;20.540;2022-11-20T14:03:32;6.32;81.17
67586;SHT31;55785;47.946;20.540;2022-11-20T14:06:04;6.34;81.44
67586;SHT31;55785;47.946;20.540;2022-11-20T14:08:48;6.40;81.55
67586;SHT31;55785;47.946;20.540;2022-11-20T14:14:03;6.42;81.77
67586;SHT31;55785;47.946;20.540;2022-11-20T14:16:34;6.45;81.07
67586;SHT31;55785;47.946;20.540;2022-11-20T14:19:35;6.37;80.73
67586;SHT31;55785;47.946;20.540;2022-11-20T14:22:19;6.31;81.35
67586;SHT31;55785;47.946;20.540;2022-11-20T14:24:45;6.30;80.77
67586;SHT31;55785;47.946;20.540;2022-11-20T14:27:16;6.17;81.05
67586;SHT31;55785;47.946;20.540;2022-11-20T14:29:43;6.03;81.55
67586;SHT31;55785;47.946;20.540;2022-11-20T14:32:09;5.99;81.93
67586;SHT31;55785;47.946;20.540;2022-11-20T14:34:40;5.87;81.78
67586;SHT31;55785;47.946;20.540;2022-11-20T14:37:11;5.73;81.97
67586;SHT31;55785;47.946;20.540;2022-11-20T14:39:46;5.73;82.10
67586;SHT31;55785;47.946;20.540;2022-11-20T14:42:15;5.70;82.25
67586;SHT31;55785;47.946;20.540;2022-11-20T14:44:42;5.65;82.05
67586;SHT31;55785;47.946;20.540;2022-11-20T14:47:12;5.65;82.06
67586;SHT31;55785;47.946;20.540;2022-11-20T14:49:38;5.53;82.16
67586;SHT31;55785;47.946;20.540;2022-11-20T14:52:34;5.34;82.30
67586;SHT31;55785;47.946;20.540;2022-11-20T14:54:59;5.24;82.43
67586;SHT31;55785;47.946;20.540;2022-11-20T14:59:50;4.98;82.42
67586;SHT31;55785;47.946;20.540;2022-11-20T15:02:16;4.90;82.74
67586;SHT31;55785;47.946;20.540;2022-11-20T15:04:49;4.83;82.84
67586;SHT31;55785;47.946;20.540;2022-11-20T15:07:25;4.76;82.68
67586;SHT31;55785;47.946;20.540;2022-11-20T15:10:09;4.65;83.23
67586;SHT31;55785;47.946;20.540;2022-11-20T15:12:38;4.74;83.10
67586;SHT31;55785;47.946;20.540;2022-11-20T15:15:05;4.67;82.95
67586;SHT31;55785;47.946;20.540;2022-11-20T15:17:32;4.65;83.04
67586;SHT31;55785;47.946;20.540;2022-11-20T15:20:00;4.44;83.69
67586;SHT31;55785;47.946;20.540;2022-11-20T15:22:27;4.59;83.48
67586;SHT31;55785;47.946;20.540;2022-11-20T15:24:52;4.59;83.09
67586;SHT31;55785;47.946;20.540;2022-11-20T15:27:17;4.52;83.11
67586;SHT31;55785;47.946;20.540;2022-11-20T15:29:43;4.56;83.12
67586;SHT31;55785;47.946;20.540;2022-11-20T15:32:08;4.44;83.21
67586;SHT31;55785;47.946;20.540;2022-11-20T15:34:34;4.19;83.36
67586;SHT31;55785;47.946;20.540;2022-11-20T15:36:59;4.26;83.16
67586;SHT31;55785;47.946;20.540;2022-11-20T15:39:24;4.32;82.60
67586;SHT31;55785;47.946;20.540;2022-11-20T15:41:50;4.28;82.59
67586;SHT31;55785;47.946;20.540;2022-11-20T15:44:15;4.18;83.08
67586;SHT31;55785;47.946;20.540;2022-11-20T15:46:41;4.22;83.07
67586;SHT31;55785;47.946;20.540;2022-11-20T15:49:15;4.09;83.22
67586;SHT31;55785;47.946;20.540;2022-11-20T15:51:45;3.94;83.54
67586;SHT31;55785;47.946;20.540;2022-11-20T15:54:17;3.97;83.62
67586;SHT31;55785;47.946;20.540;2022-11-20T15:56:42;3.83;83.27
67586;SHT31;55785;47.946;20.540;2022-11-20T15:59:08;3.83;83.33
67586;SHT31;55785;47.946;20.540;2022-11-20T16:01:33;3.80;83.29
67586;SHT31;55785;47.946;20.540;2022-11-20T16:03:59;3.47;82.93
67586;SHT31;55785;47.946;20.540;2022-11-20T16:06:25;3.43;83.39
67586;SHT31;55785;47.946;20.540;2022-11-20T16:08:50;3.39;83.49
67586;SHT31;55785;47.946;20.540;2022-11-20T16:11:17;3.39;84.14
67586;SHT31;55785;47.946;20.540;2022-11-20T16:13:43;3.40;84.18
67586;SHT31;55785;47.946;20.540;2022-11-20T16:16:19;3.35;84.12
67586;SHT31;55785;47.946;20.540;2022-11-20T16:18:46;3.30;84.29
67586;SHT31;55785;47.946;20.540;2022-11-20T16:21:11;3.11;84.59
67586;SHT31;55785;47.946;20.540;2022-11-20T16:23:37;2.84;83.16
67586;SHT31;55785;47.946;20.540;2022-11-20T16:26:09;2.90;83.00
67586;SHT31;55785;47.946;20.540;2022-11-20T16:28:35;2.74;83.38
67586;SHT31;55785;47.946;20.540;2022-11-20T16:31:14;2.67;83.57
67586;SHT31;55785;47.946;20.540;2022-11-20T16:33:40;2.51;84.39
67586;SHT31;55785;47.946;20.540;2022-11-20T16:36:13;2.62;84.26
67586;SHT31;55785;47.946;20.540;2022-11-20T16:38:39;2.62;83.77
67586;SHT31;55785;47.946;20.540;2022-11-20T16:41:06;2.54;83.62
67586;SHT31;55785;47.946;20.540;2022-11-20T16:43:31;2.28;84.21
67586;SHT31;55785;47.946;20.540;2022-11-20T16:45:57;2.25;84.96
67586;SHT31;55785;47.946;20.540;2022-11-20T16:48:22;2.23;84.98
67586;SHT31;55785;47.946;20.540;2022-11-20T16:50:51;2.09;84.67
67586;SHT31;55785;47.946;20.540;2022-11-20T16:53:18;1.86;84.67
67586;SHT31;55785;47.946;20.540;2022-11-20T16:55:44;1.77;85.60
67586;SHT31;55785;47.946;20.540;2022-11-20T16:58:09;1.67;85.74
67586;SHT31;55785;47.946;20.540;2022-11-20T17:00:36;1.58;86.06
67586;SHT31;55785;47.946;20.540;2022-11-20T17:03:01;1.55;86.34
67586;SHT31;55785;47.946;20.540;2022-11-20T17:05:29;1.46;86.64
67586;SHT31;55785;47.946;20.540;2022-11-20T17:07:54;1.40;87.03
67586;SHT31;55785;47.946;20.540;2022-11-20T17:10:19;1.51;86.82
67586;SHT31;55785;47.946;20.540;2022-11-20T17:12:45;1.53;86.58
67586;SHT31;55785;47.946;20.540;2022-11-20T17:15:10;1.58;86.30
67586;SHT31;55785;47.946;20.540;2022-11-20T17:17:35;1.63;86.14